Airfield :
LOGIN :

Register | Disclaimer

   EN    FR    IT 

 










Legend :    VFR   Marginal VFR   IFR   Intensive IFR   Very Intensive IFR
Visi :
Ceiling :
>= 8 km
>= 3000ft
5 to 8 km
1000 to 3000 ft
1500m to 5 km
500 to 1000 ft
800 to 1500m
200 to 500 ft
< 800m
< 200 ft
Symbols :   Thunderstorms  Fog  Heavy snow  Heavy precipitations  Wind > 20 kt
SIGMETs :     Misc.  Thunderstorms  Icing  Turbulence  Mountain Waves  Volcanic Ashes







- Airport Elevation : 124 ft
- IATA code : AVN
- Download approach charts


LFMV - Avignon Caumont

CURRENT METAR :
  • 241230Z AUTO 33010KT 300V020 CAVOK 28/13 Q1016 NOSIG

EXPIRED METARs :
  • 241200Z AUTO 33010KT 300V010 CAVOK 28/13 Q1016 NOSIG
  • 241130Z AUTO 33009KT 300V020 CAVOK 26/13 Q1017 NOSIG
  • 241100Z AUTO 34010KT CAVOK 26/13 Q1017 NOSIG
  • 241030Z AUTO 32009KT CAVOK 24/12 Q1017 NOSIG
  • 241000Z AUTO 32010KT CAVOK 24/12 Q1017 NOSIG

TAF TAF LFMV
Valid from the 24 at 09:00 until the 25 at 09:00 UTC


240800Z 2409/2509 35009KT CAVOK
BECMG 2421/2424 35020KT
TEMPO 2500/2509 35017G27KT
ATIS : +33 4 90 84 32 84
No reported NOTAMs for that airfield.
1 SIGMET reported for the Marseille FIR (LFMM) :
 
Embedded thunderstorms
LFMM SIGMET 1 VALID 241220/241500 LFPW
LFMM MARSEILLE FIR/UIR EMBD TS FCST WI N4130 E00845 - N4245 E00845 - N4245 E00930 - N4130 E00915 - N4130 E00845 TOP FL350 STNR NC=



MET'MAP, your aeronautical weather chart ! - Copyright ORBIFLY December 2007 - Disclaimer

ORBIFLY MET'MAP TEAM :

Programming & Development : Alexandra Zaïnal
Concept & Development : Baudouin d'Aumeries
Co-Development & Prog : Marc-Olivier Méhu
Technical & hardware support : Manuel Goepfert

Contact : metmap@orbifly.com




SOURCES & CREDITS :

   NOAA